Time;durP1;ratioP1;P1;durP2;ratioP2;P2;SDS_P1;SDS_P2;PMS_P1;PMS_P2;Temp;Humidity;BMP_temperature;BMP_pressure;BME280_temperature;BME280_humidity;BME280_pressure;Samples;Min_cycle;Max_cycle;Signal;HPM_P1;HPM_P2
2022/08/01 00:00:41;;;;;;;1.83;1.73;;;23.70;65.80;;;;;;5015721;28;20034;-89
2022/08/01 00:03:06;;;;;;;4.13;2.33;;;23.70;65.80;;;;;;5015896;28;20113;-89
2022/08/01 00:05:32;;;;;;;1.77;1.67;;;23.70;65.80;;;;;;5014623;28;20544;-89
2022/08/01 00:07:59;;;;;;;1.67;1.58;;;23.70;65.80;;;;;;5024494;28;20060;-89
2022/08/01 00:10:24;;;;;;;2.58;1.77;;;23.70;66.10;;;;;;5015735;28;20527;-89
2022/08/01 00:12:50;;;;;;;1.98;1.77;;;23.70;65.40;;;;;;5016561;28;20038;-89
2022/08/01 00:15:17;;;;;;;1.67;1.58;;;23.60;65.20;;;;;;5016141;28;20033;-89
2022/08/01 00:17:43;;;;;;;2.08;1.88;;;23.60;65.20;;;;;;5015974;28;20600;-89
2022/08/01 00:20:12;;;;;;;1.80;1.70;;;23.60;65.30;;;;;;5015199;28;20026;-89
2022/08/01 00:22:38;;;;;;;2.90;1.85;;;23.60;65.50;;;;;;5020526;28;20067;-90
2022/08/01 00:25:05;;;;;;;1.40;1.40;;;23.60;65.60;;;;;;5017516;28;20053;-89
2022/08/01 00:27:31;;;;;;;1.85;1.75;;;23.60;65.50;;;;;;5016376;28;20026;-89
2022/08/01 00:29:58;;;;;;;2.03;1.40;;;23.60;65.70;;;;;;5013917;28;20481;-88
2022/08/01 00:32:24;;;;;;;2.10;1.90;;;23.60;65.60;;;;;;5015205;28;20481;-89
2022/08/01 00:34:49;;;;;;;1.70;1.60;;;23.60;65.40;;;;;;5021794;28;20025;-90
2022/08/01 00:37:16;;;;;;;1.98;1.75;;;23.60;65.20;;;;;;5014492;28;20030;-89
2022/08/01 00:39:41;;;;;;;1.88;1.77;;;23.60;65.10;;;;;;5014824;28;20038;-90
2022/08/01 00:42:09;;;;;;;1.83;1.73;;;23.60;65.20;;;;;;5015329;28;20044;-89
2022/08/01 00:44:35;;;;;;;1.70;1.60;;;23.60;65.30;;;;;;5022439;28;20087;-90
2022/08/01 00:47:01;;;;;;;1.92;1.83;;;23.60;65.20;;;;;;5017692;28;20029;-89
2022/08/01 00:49:27;;;;;;;2.60;1.60;;;23.50;64.80;;;;;;5006057;28;20030;-89
2022/08/01 00:51:54;;;;;;;2.05;1.70;;;23.50;64.90;;;;;;5014545;28;20381;-89
2022/08/01 00:54:20;;;;;;;2.40;2.20;;;23.50;64.60;;;;;;5014786;28;20026;-90
2022/08/01 00:56:45;;;;;;;1.80;1.70;;;23.50;64.70;;;;;;5014726;28;20477;-89
2022/08/01 00:59:12;;;;;;;1.83;1.73;;;23.40;64.80;;;;;;5015136;28;20033;-90
2022/08/01 01:01:38;;;;;;;1.77;1.67;;;23.50;65.10;;;;;;5014301;28;20072;-89
2022/08/01 01:04:04;;;;;;;2.25;2.08;;;23.40;65.00;;;;;;5011957;28;20046;-89
2022/08/01 01:06:39;;;;;;;2.20;2.00;;;23.40;65.00;;;;;;5010442;28;20109;-90
2022/08/01 01:09:24;;;;;;;1.30;1.20;;;23.40;64.80;;;;;;5012889;28;20030;-90
2022/08/01 01:12:26;;;;;;;1.80;1.70;;;23.40;64.40;;;;;;5016086;28;20026;-89
2022/08/01 01:15:14;;;;;;;1.67;1.58;;;23.40;64.40;;;;;;5003008;28;20026;-90
2022/08/01 01:17:57;;;;;;;1.35;1.25;;;23.40;64.50;;;;;;5015299;28;20049;-89
2022/08/01 01:20:30;;;;;;;1.85;1.73;;;23.30;64.30;;;;;;5012433;28;20018;-89
2022/08/01 01:22:55;;;;;;;1.60;1.50;;;23.30;64.30;;;;;;5014344;28;20018;-89
2022/08/01 01:25:39;;;;;;;1.50;1.40;;;23.30;64.40;;;;;;5013424;28;20029;-90
2022/08/01 01:28:08;;;;;;;1.52;1.40;;;23.30;64.40;;;;;;5015348;28;20022;-89
2022/08/01 01:30:34;;;;;;;1.95;1.85;;;23.30;64.50;;;;;;5014578;28;20032;-89
2022/08/01 01:33:02;;;;;;;1.80;1.70;;;23.20;64.50;;;;;;5007434;28;20378;-89
2022/08/01 01:35:33;;;;;;;1.85;1.75;;;23.20;64.50;;;;;;5013913;28;20022;-89
2022/08/01 01:38:14;;;;;;;2.40;2.20;;;23.20;64.40;;;;;;5015634;28;20469;-89
2022/08/01 01:40:41;;;;;;;1.73;1.60;;;23.20;64.30;;;;;;5014600;28;20079;-89
2022/08/01 01:43:11;;;;;;;2.03;1.80;;;23.10;64.30;;;;;;5004815;28;20490;-89
2022/08/01 01:45:38;;;;;;;2.95;1.83;;;23.10;64.40;;;;;;5021388;28;20036;-89
2022/08/01 01:48:07;;;;;;;1.35;1.25;;;23.10;65.20;;;;;;5013241;28;20065;-89
2022/08/01 01:50:35;;;;;;;1.50;1.40;;;23.10;64.70;;;;;;5014063;28;20037;-90
2022/08/01 01:53:03;;;;;;;1.42;1.33;;;23.00;64.60;;;;;;5013716;28;20038;-89
2022/08/01 01:55:30;;;;;;;1.80;1.70;;;23.00;64.60;;;;;;5013313;28;20034;-89
2022/08/01 01:57:57;;;;;;;1.65;1.40;;;23.00;64.50;;;;;;5013711;28;20064;-90
2022/08/01 02:00:23;;;;;;;1.90;1.80;;;23.00;64.70;;;;;;5013748;28;20099;-89
2022/08/01 02:02:51;;;;;;;1.73;1.63;;;23.00;65.00;;;;;;5013596;28;20042;-89
2022/08/01 02:05:18;;;;;;;1.50;1.40;;;22.90;65.00;;;;;;5011083;28;20033;-89
2022/08/01 02:07:44;;;;;;;2.95;1.75;;;22.90;65.00;;;;;;5013984;28;20026;-90
2022/08/01 02:10:11;;;;;;;1.70;1.60;;;22.90;65.00;;;;;;5013665;28;20041;-89
2022/08/01 02:12:41;;;;;;;1.80;1.70;;;22.90;64.90;;;;;;5016098;28;20038;-89
2022/08/01 02:15:09;;;;;;;2.00;1.80;;;22.90;64.80;;;;;;5021447;28;20026;-90
2022/08/01 02:17:41;;;;;;;1.88;1.70;;;22.90;64.80;;;;;;5000406;28;20034;-89
2022/08/01 02:20:07;;;;;;;2.05;1.80;;;22.80;64.70;;;;;;5013264;28;20026;-90
2022/08/01 02:22:37;;;;;;;1.80;1.70;;;22.80;64.90;;;;;;5014899;28;20046;-89
2022/08/01 02:25:07;;;;;;;1.73;1.63;;;22.80;64.40;;;;;;5000404;28;20030;-89
2022/08/01 02:28:06;;;;;;;1.52;1.40;;;22.80;64.80;;;;;;5013760;28;20116;-89
2022/08/01 02:30:41;;;;;;;2.75;1.50;;;22.80;65.20;;;;;;4994154;28;20120;-89
2022/08/01 02:33:16;;;;;;;1.95;1.80;;;22.80;65.20;;;;;;5012214;28;20516;-90
2022/08/01 02:35:45;;;;;;;1.95;1.70;;;22.80;65.30;;;;;;5013828;28;20013;-91
2022/08/01 02:38:13;;;;;;;1.88;1.60;;;22.70;65.10;;;;;;5013234;28;20029;-90
2022/08/01 02:40:43;;;;;;;1.63;1.52;;;22.70;65.10;;;;;;5013980;28;20036;-90
2022/08/01 02:43:11;;;;;;;1.65;1.55;;;22.80;65.10;;;;;;5014160;28;20026;-90
2022/08/01 02:45:43;;;;;;;2.03;1.70;;;22.70;64.80;;;;;;5021326;28;20076;-90
2022/08/01 02:48:13;;;;;;;1.77;1.60;;;22.70;65.60;;;;;;5013379;28;20026;-89
2022/08/01 02:50:44;;;;;;;2.10;1.50;;;22.80;65.30;;;;;;5014337;28;20104;-90
2022/08/01 02:53:13;;;;;;;1.90;1.50;;;22.70;65.30;;;;;;5013430;28;20017;-90
2022/08/01 02:55:41;;;;;;;1.40;1.30;;;22.80;65.50;;;;;;5009802;28;20105;-90
2022/08/01 02:58:10;;;;;;;5.40;1.60;;;22.80;65.40;;;;;;5026037;28;20032;-90
2022/08/01 03:00:36;;;;;;;1.60;1.50;;;22.80;65.60;;;;;;5011979;28;20053;-90
2022/08/01 03:03:04;;;;;;;1.73;1.63;;;22.80;65.50;;;;;;5013278;28;20538;-90
2022/08/01 03:05:31;;;;;;;2.67;1.75;;;22.80;65.30;;;;;;5006264;28;20026;-90
2022/08/01 03:07:59;;;;;;;1.65;1.52;;;22.80;65.30;;;;;;5012407;28;20401;-89
2022/08/01 03:10:28;;;;;;;2.20;1.95;;;22.80;65.30;;;;;;5012833;28;20037;-90
2022/08/01 03:12:55;;;;;;;1.65;1.55;;;22.70;65.30;;;;;;5014230;28;20057;-89
2022/08/01 03:15:25;;;;;;;1.55;1.42;;;22.70;65.30;;;;;;5013151;28;20022;-90
2022/08/01 03:17:52;;;;;;;1.70;1.60;;;22.70;65.60;;;;;;5013250;28;20029;-89
2022/08/01 03:20:20;;;;;;;1.60;1.50;;;22.70;65.50;;;;;;5014751;28;20060;-89
2022/08/01 03:22:48;;;;;;;1.83;1.50;;;22.70;65.60;;;;;;5010374;28;20400;-89
2022/08/01 03:25:15;;;;;;;1.50;1.40;;;22.70;65.40;;;;;;5014120;28;20062;-89
2022/08/01 03:27:45;;;;;;;1.60;1.50;;;22.70;65.20;;;;;;5013392;28;20030;-89
2022/08/01 03:30:12;;;;;;;1.50;1.40;;;22.70;65.50;;;;;;5012844;28;20618;-88
2022/08/01 03:32:38;;;;;;;1.50;1.40;;;22.70;65.10;;;;;;5012228;28;20022;-90
2022/08/01 03:35:04;;;;;;;1.70;1.60;;;22.70;65.10;;;;;;5013952;28;20029;-89
2022/08/01 03:37:38;;;;;;;1.83;1.73;;;22.80;65.30;;;;;;5014821;28;20084;-89
2022/08/01 03:40:43;;;;;;;2.35;1.88;;;22.80;65.10;;;;;;5012150;28;20125;-89
2022/08/01 03:43:18;;;;;;;2.88;1.40;;;22.80;65.00;;;;;;5009710;28;20033;-89
2022/08/01 03:45:49;;;;;;;2.28;1.90;;;22.70;64.90;;;;;;5020314;28;20388;-89
2022/08/01 03:48:18;;;;;;;2.13;1.92;;;22.80;65.70;;;;;;5014150;28;20084;-89
2022/08/01 03:50:47;;;;;;;2.28;2.08;;;22.80;65.30;;;;;;5010750;28;20026;-89
2022/08/01 03:53:14;;;;;;;2.78;2.10;;;22.80;65.10;;;;;;5016990;28;20080;-88
2022/08/01 03:55:43;;;;;;;2.00;1.85;;;22.80;65.30;;;;;;5011153;28;20477;-89
2022/08/01 03:58:10;;;;;;;2.28;2.10;;;22.80;65.10;;;;;;5009836;28;20105;-89
2022/08/01 04:00:39;;;;;;;2.35;2.00;;;22.80;65.20;;;;;;5010989;28;20026;-90
2022/08/01 04:03:08;;;;;;;1.90;1.80;;;22.90;65.30;;;;;;5012241;28;20056;-90
2022/08/01 04:05:34;;;;;;;2.08;1.88;;;22.90;65.90;;;;;;5009889;28;20037;-89
2022/08/01 04:08:01;;;;;;;3.65;1.80;;;23.00;65.30;;;;;;5004760;28;20034;-90
2022/08/01 04:10:27;;;;;;;1.40;1.30;;;23.00;64.80;;;;;;5012157;28;20025;-89
2022/08/01 04:12:54;;;;;;;1.88;1.70;;;23.00;64.80;;;;;;5011097;28;20252;-89
2022/08/01 04:15:20;;;;;;;1.48;1.38;;;23.10;64.60;;;;;;5011448;28;20113;-89
2022/08/01 04:17:46;;;;;;;1.60;1.50;;;23.10;64.70;;;;;;5012646;28;20050;-90
2022/08/01 04:20:12;;;;;;;1.70;1.60;;;23.10;64.60;;;;;;5015623;28;20390;-89
2022/08/01 04:22:39;;;;;;;1.63;1.52;;;23.10;64.60;;;;;;5010699;28;20030;-89
2022/08/01 04:25:12;;;;;;;2.20;2.00;;;23.10;64.90;;;;;;5012530;28;20026;-89
2022/08/01 04:27:42;;;;;;;3.40;1.95;;;23.00;64.90;;;;;;5012474;28;20488;-89
2022/08/01 04:30:08;;;;;;;1.85;1.75;;;23.00;64.90;;;;;;4998748;28;20087;-89
2022/08/01 04:32:38;;;;;;;2.03;1.83;;;23.00;65.00;;;;;;5010560;28;20615;-88
2022/08/01 04:35:09;;;;;;;1.40;1.30;;;23.00;65.30;;;;;;5019845;28;20411;-89
2022/08/01 04:37:36;;;;;;;1.83;1.73;;;23.00;65.40;;;;;;5012918;28;20021;-89
2022/08/01 04:40:05;;;;;;;2.13;1.65;;;22.90;65.40;;;;;;5012078;28;20053;-90
2022/08/01 04:42:32;;;;;;;3.55;2.13;;;22.90;65.50;;;;;;5011513;28;20425;-89
2022/08/01 04:44:58;;;;;;;2.88;1.90;;;22.90;65.40;;;;;;5010571;28;20022;-89
2022/08/01 04:47:26;;;;;;;1.70;1.60;;;23.00;65.70;;;;;;5016099;28;20026;-90
2022/08/01 04:49:53;;;;;;;1.83;1.73;;;23.00;65.70;;;;;;5009686;28;20117;-90
2022/08/01 04:52:19;;;;;;;2.67;2.15;;;23.00;65.80;;;;;;5023791;28;20385;-91
2022/08/01 04:54:46;;;;;;;3.08;2.20;;;23.00;65.70;;;;;;5010606;28;20045;-90
2022/08/01 04:57:12;;;;;;;2.08;1.88;;;23.00;65.70;;;;;;5010331;28;20075;-90
2022/08/01 04:59:43;;;;;;;2.45;2.20;;;23.00;65.80;;;;;;4988852;28;20034;-89
2022/08/01 05:02:19;;;;;;;1.70;1.60;;;23.00;65.90;;;;;;5010978;28;20022;-90
2022/08/01 05:04:45;;;;;;;1.65;1.55;;;23.10;65.60;;;;;;5008157;28;20030;-90
2022/08/01 05:07:12;;;;;;;3.00;2.05;;;23.10;65.50;;;;;;5012419;28;20437;-90
2022/08/01 05:09:45;;;;;;;2.55;1.95;;;23.10;65.70;;;;;;5014969;28;20404;-90
2022/08/01 05:12:11;;;;;;;1.98;1.88;;;23.20;65.70;;;;;;5013875;28;20053;-91
2022/08/01 05:14:37;;;;;;;2.10;1.80;;;23.30;65.60;;;;;;5015107;28;20022;-90
2022/08/01 05:17:06;;;;;;;2.75;2.28;;;23.50;66.00;;;;;;5026426;28;20061;-90
2022/08/01 05:19:36;;;;;;;2.78;2.20;;;23.70;65.70;;;;;;5012267;28;20071;-90
2022/08/01 05:22:04;;;;;;;2.22;2.08;;;24.00;65.20;;;;;;5007553;28;20022;-90
2022/08/01 05:24:35;;;;;;;3.65;2.50;;;24.10;64.90;;;;;;5008857;28;20034;-90
2022/08/01 05:27:01;;;;;;;1.83;1.73;;;24.40;64.90;;;;;;5014750;28;20739;-91
2022/08/01 05:29:27;;;;;;;1.70;1.60;;;24.60;64.70;;;;;;5013755;28;20030;-91
2022/08/01 05:31:53;;;;;;;1.92;1.83;;;24.90;64.40;;;;;;5011767;28;20029;-89
2022/08/01 05:34:20;;;;;;;3.10;2.03;;;25.40;63.80;;;;;;5009335;28;20089;-89
2022/08/01 05:36:46;;;;;;;2.67;2.30;;;25.80;63.00;;;;;;5006445;28;20071;-92
2022/08/01 05:39:13;;;;;;;2.63;2.13;;;26.00;62.20;;;;;;5009815;28;20045;-90
2022/08/01 05:41:39;;;;;;;2.33;2.10;;;26.10;61.70;;;;;;5004531;28;20030;-90
2022/08/01 05:44:06;;;;;;;2.08;1.92;;;26.10;61.60;;;;;;5008942;28;20068;-92
2022/08/01 05:46:33;;;;;;;2.63;2.40;;;26.00;61.70;;;;;;4995519;28;20056;-92
2022/08/01 05:49:03;;;;;;;2.50;2.30;;;25.80;61.90;;;;;;5010827;28;20109;-89
2022/08/01 05:51:31;;;;;;;3.00;2.43;;;25.70;61.90;;;;;;5003244;28;20033;-92
2022/08/01 05:53:58;;;;;;;2.85;2.30;;;25.50;62.30;;;;;;5002030;28;20271;-90
2022/08/01 05:56:24;;;;;;;3.25;2.63;;;25.40;62.60;;;;;;5009734;28;20022;-90
2022/08/01 05:58:51;;;;;;;2.70;2.40;;;25.30;63.00;;;;;;5001788;28;20072;-89
2022/08/01 06:01:18;;;;;;;3.35;2.75;;;25.20;63.30;;;;;;5007398;28;20093;-90
2022/08/01 06:03:44;;;;;;;2.20;2.10;;;25.10;63.60;;;;;;5000024;28;20924;-90
2022/08/01 06:06:16;;;;;;;2.78;2.33;;;25.00;64.00;;;;;;5004592;28;20045;-89
2022/08/01 06:08:42;;;;;;;4.70;2.80;;;25.00;64.30;;;;;;5000470;28;20057;-89
2022/08/01 06:11:08;;;;;;;3.50;2.90;;;25.00;64.50;;;;;;5003898;28;20057;-88
2022/08/01 06:13:34;;;;;;;3.15;2.85;;;25.10;64.60;;;;;;5006651;28;20050;-86
2022/08/01 06:16:03;;;;;;;2.70;2.50;;;25.00;64.40;;;;;;5018850;28;20034;-91
2022/08/01 06:18:29;;;;;;;4.45;2.97;;;25.10;64.70;;;;;;5000670;28;20029;-89
2022/08/01 06:20:54;;;;;;;3.40;2.97;;;25.10;64.60;;;;;;5005481;28;20030;-90
2022/08/01 06:23:21;;;;;;;2.55;2.35;;;25.10;64.60;;;;;;5007915;28;20033;-89
2022/08/01 06:25:47;;;;;;;2.80;2.50;;;25.10;64.70;;;;;;5000232;28;20037;-88
2022/08/01 06:28:13;;;;;;;2.92;2.70;;;25.10;64.90;;;;;;5004683;28;20080;-91
2022/08/01 06:30:39;;;;;;;3.95;2.90;;;25.00;65.10;;;;;;5004753;28;20034;-90
2022/08/01 06:33:09;;;;;;;2.55;2.35;;;25.00;65.30;;;;;;5000718;28;20053;-91
2022/08/01 06:35:34;;;;;;;2.60;2.40;;;25.00;65.30;;;;;;5002180;28;20113;-89
2022/08/01 06:38:01;;;;;;;2.60;2.40;;;24.90;65.20;;;;;;5002052;28;20117;-88
2022/08/01 06:40:27;;;;;;;2.97;2.20;;;24.80;65.60;;;;;;5012630;28;20110;-91
2022/08/01 06:43:21;;;;;;;3.00;2.40;;;24.80;65.80;;;;;;5013585;28;20057;-94
2022/08/01 06:46:24;;;;;;;3.03;2.55;;;24.80;66.40;;;;;;5009512;28;20511;-88
2022/08/01 06:49:15;;;;;;;3.63;3.00;;;24.90;66.60;;;;;;4952051;28;20077;-95
2022/08/01 06:51:41;;;;;;;2.47;2.28;;;25.00;66.00;;;;;;5004264;28;20038;-91
2022/08/01 06:55:16;;;;;;;3.25;2.72;;;25.00;65.80;;;;;;5008326;28;20054;-94
2022/08/01 06:58:04;;;;;;;2.60;2.40;;;25.10;65.90;;;;;;5001590;28;20034;-92
2022/08/01 07:00:35;;;;;;;3.45;2.83;;;25.20;65.80;;;;;;5003815;28;20033;-91
2022/08/01 07:03:01;;;;;;;2.58;2.38;;;25.20;65.50;;;;;;4987723;28;20045;-93
2022/08/01 07:08:48;;;;;;;3.22;2.55;;;25.20;65.50;;;;;;4997995;28;20036;-90
2022/08/01 07:11:55;;;;;;;3.15;2.58;;;25.20;65.50;;;;;;4996460;28;20042;-92
2022/08/01 07:18:33;;;;;;;2.97;2.40;;;25.40;65.60;;;;;;4974711;28;20038;-94
2022/08/01 07:21:00;;;;;;;3.42;2.97;;;25.40;65.40;;;;;;4992065;28;20038;-89
2022/08/01 07:36:04;;;;;;;4.20;3.03;;;25.50;65.20;;;;;;4995244;28;20677;-89
2022/08/01 07:49:49;;;;;;;2.50;2.30;;;25.30;66.00;;;;;;4916968;29;20035;-92
2022/08/01 07:52:18;;;;;;;3.00;2.25;;;25.30;65.70;;;;;;4995089;28;20050;-91
2022/08/01 07:55:40;;;;;;;3.65;2.45;;;25.30;65.80;;;;;;4999784;28;20022;-90
2022/08/01 07:58:27;;;;;;;2.60;2.40;;;25.40;66.10;;;;;;4989054;28;20092;-89
2022/08/01 08:04:58;;;;;;;;;;;;;;;;;;;;;
2022/08/01 08:08:59;;;;;;;;;;;;;;;;;;;;;
2022/08/01 08:10:56;;;;;;;3.05;2.75;;;25.10;66.60;;;;;;4987117;28;20034;-90
2022/08/01 08:13:55;;;;;;;3.35;2.80;;;25.10;66.90;;;;;;4999707;28;20140;-91
2022/08/01 08:17:15;;;;;;;4.78;3.20;;;25.00;67.00;;;;;;4993529;28;20381;-92
2022/08/01 08:19:44;;;;;;;3.88;3.15;;;25.00;67.50;;;;;;5022976;28;20033;-89
2022/08/01 08:22:10;;;;;;;3.03;2.53;;;24.90;67.50;;;;;;5005628;28;20840;-91
2022/08/01 08:24:37;;;;;;;2.65;2.45;;;24.80;67.60;;;;;;5000398;28;20093;-87
2022/08/01 08:27:42;;;;;;;2.88;2.65;;;24.80;68.00;;;;;;5005017;28;20436;-92
2022/08/01 08:33:34;;;;;;;3.75;3.17;;;24.80;68.50;;;;;;4933903;28;20460;-86
2022/08/01 08:36:00;;;;;;;3.78;3.33;;;24.70;68.60;;;;;;4983330;28;20074;-86
2022/08/01 08:38:27;;;;;;;3.90;3.03;;;24.70;68.70;;;;;;4999375;28;20030;-87
2022/08/01 08:41:08;;;;;;;3.60;3.15;;;24.60;69.00;;;;;;5000799;28;20036;-89
2022/08/01 08:43:35;;;;;;;3.33;3.03;;;24.60;69.50;;;;;;5003241;28;20044;-88
2022/08/01 08:46:15;;;;;;;3.83;3.00;;;24.60;69.60;;;;;;5015685;28;20054;-90
2022/08/01 08:48:49;;;;;;;3.67;3.20;;;24.60;69.90;;;;;;4995697;28;20077;-90
2022/08/01 08:51:39;;;;;;;3.15;2.78;;;24.60;70.00;;;;;;4996130;28;23624;-88
2022/08/01 09:04:41;;;;;;;4.35;3.80;;;24.60;70.70;;;;;;4934060;28;20035;-88
2022/08/01 09:07:20;;;;;;;4.05;3.63;;;24.60;70.80;;;;;;4934487;28;20059;-92
2022/08/01 09:10:18;;;;;;;4.20;3.50;;;24.50;71.00;;;;;;4943774;28;20245;-92
2022/08/01 09:13:07;;;;;;;3.83;3.30;;;24.50;71.30;;;;;;4947065;28;20055;-90
2022/08/01 09:15:52;;;;;;;3.33;2.92;;;24.50;72.10;;;;;;4989018;28;20035;-89
2022/08/01 09:18:44;;;;;;;5.57;4.03;;;24.50;71.60;;;;;;5011428;28;20034;-90
2022/08/01 09:22:00;;;;;;;4.50;3.72;;;24.40;71.90;;;;;;5009669;28;20060;-88
2022/08/01 09:24:31;;;;;;;5.70;3.63;;;24.30;72.00;;;;;;5010581;28;20026;-90
2022/08/01 09:26:58;;;;;;;5.10;4.15;;;24.30;72.50;;;;;;5007548;28;20141;-89
2022/08/01 09:29:27;;;;;;;4.93;3.60;;;24.20;71.90;;;;;;5004145;28;20034;-91
2022/08/01 09:31:55;;;;;;;4.40;3.90;;;24.30;72.70;;;;;;4998049;28;20031;-88
2022/08/01 09:34:32;;;;;;;5.18;4.68;;;24.30;72.10;;;;;;5006504;28;20030;-90
2022/08/01 09:37:02;;;;;;;4.90;4.15;;;24.30;72.40;;;;;;5008972;28;20030;-90
2022/08/01 09:39:33;;;;;;;5.80;4.00;;;24.30;72.00;;;;;;5004368;28;20030;-91
2022/08/01 09:42:42;;;;;;;5.72;4.43;;;24.20;72.00;;;;;;5005113;28;20071;-90
2022/08/01 09:45:07;;;;;;;5.35;4.28;;;24.20;71.80;;;;;;5005578;28;20030;-87
2022/08/01 09:47:38;;;;;;;4.90;4.00;;;24.20;72.00;;;;;;5007229;28;20411;-90
2022/08/01 09:50:07;;;;;;;5.28;4.28;;;24.20;72.20;;;;;;5001814;28;20042;-90
2022/08/01 09:52:36;;;;;;;5.50;4.40;;;24.10;72.30;;;;;;5001217;28;20168;-89
2022/08/01 09:55:06;;;;;;;7.32;4.18;;;24.10;72.50;;;;;;4997937;28;20030;-93
2022/08/01 09:57:32;;;;;;;4.47;3.67;;;24.10;72.50;;;;;;5004847;28;20033;-88
2022/08/01 10:00:03;;;;;;;5.70;3.55;;;24.10;72.60;;;;;;5007659;28;20033;-91
2022/08/01 10:02:35;;;;;;;;;;;24.10;72.60;;;;;;5019479;28;20026;-92
2022/08/01 10:05:05;;;;;;;5.78;4.55;;;24.00;73.20;;;;;;5001270;28;19922;-90
2022/08/01 10:07:58;;;;;;;4.93;4.10;;;24.00;72.80;;;;;;5001855;28;20500;-92
2022/08/01 10:11:07;;;;;;;5.63;4.32;;;24.00;73.50;;;;;;5006821;28;20033;-89
2022/08/01 10:13:42;;;;;;;6.20;3.53;;;24.00;73.60;;;;;;5003003;28;20712;-92
2022/08/01 10:16:17;;;;;;;5.35;4.35;;;24.00;73.50;;;;;;4997221;28;20068;-90
2022/08/01 10:18:47;;;;;;;5.38;4.13;;;24.00;73.90;;;;;;5001010;28;20030;-88
2022/08/01 10:21:13;;;;;;;5.30;4.10;;;24.00;73.90;;;;;;5003405;28;20057;-88
2022/08/01 10:23:41;;;;;;;5.10;4.15;;;24.10;73.80;;;;;;4999880;28;20029;-90
2022/08/01 10:26:08;;;;;;;5.50;4.15;;;24.10;74.50;;;;;;4993931;28;20388;-91
2022/08/01 10:28:36;;;;;;;4.20;3.80;;;24.10;73.80;;;;;;4994122;28;20034;-91
2022/08/01 10:31:02;;;;;;;4.45;4.00;;;24.20;73.60;;;;;;4992146;28;20408;-86
2022/08/01 10:33:30;;;;;;;5.63;4.43;;;24.20;73.50;;;;;;4991613;28;20033;-90
2022/08/01 10:36:01;;;;;;;5.35;3.85;;;24.30;73.30;;;;;;4994994;28;20119;-89
2022/08/01 10:38:27;;;;;;;4.28;3.88;;;24.30;73.20;;;;;;4988776;28;20022;-88
2022/08/01 10:40:59;;;;;;;4.47;4.03;;;24.30;73.10;;;;;;4994250;28;20485;-86
2022/08/01 10:43:24;;;;;;;4.57;4.07;;;24.40;73.10;;;;;;4994614;28;20049;-89
2022/08/01 10:45:51;;;;;;;5.18;3.88;;;24.40;73.10;;;;;;4991209;28;20848;-90
2022/08/01 10:48:31;;;;;;;5.22;3.50;;;24.50;73.00;;;;;;4990630;28;20034;-89
2022/08/01 10:51:05;;;;;;;5.07;4.30;;;24.50;72.90;;;;;;5005879;28;20950;-87
2022/08/01 10:53:32;;;;;;;4.68;3.90;;;24.60;73.00;;;;;;4998078;28;22414;-86
2022/08/01 10:56:03;;;;;;;6.38;4.40;;;24.60;73.10;;;;;;4996301;28;20033;-88
2022/08/01 10:58:37;;;;;;;4.20;3.78;;;24.60;72.70;;;;;;4995569;28;20034;-86
2022/08/01 11:01:31;;;;;;;7.68;4.55;;;24.70;73.50;;;;;;4996318;28;20141;-90
2022/08/01 11:04:08;;;;;;;5.25;4.57;;;24.70;72.70;;;;;;4994434;28;20744;-88
2022/08/01 11:06:33;;;;;;;4.68;3.65;;;24.70;73.20;;;;;;4992285;28;20030;-88
2022/08/01 11:09:25;;;;;;;4.70;3.97;;;24.70;72.40;;;;;;4989500;28;20040;-90
2022/08/01 11:12:06;;;;;;;3.67;3.38;;;24.70;73.30;;;;;;4991050;28;20057;-89
2022/08/01 11:14:33;;;;;;;4.40;3.63;;;24.80;72.60;;;;;;5005832;28;20042;-89
2022/08/01 11:17:36;;;;;;;3.35;3.05;;;24.80;72.50;;;;;;4993290;28;21213;-89
2022/08/01 11:20:13;;;;;;;3.97;3.58;;;24.80;72.60;;;;;;5008882;28;20073;-89
2022/08/01 11:23:00;;;;;;;4.63;3.83;;;24.90;72.60;;;;;;5001939;28;20061;-90
2022/08/01 11:25:35;;;;;;;5.78;4.57;;;24.90;72.90;;;;;;4997689;28;20029;-92
2022/08/01 11:28:13;;;;;;;5.57;4.55;;;24.90;72.60;;;;;;4994311;28;20034;-90
2022/08/01 11:30:40;;;;;;;6.03;4.13;;;24.90;72.60;;;;;;4990124;28;20201;-87
2022/08/01 11:33:06;;;;;;;4.50;3.60;;;24.80;72.50;;;;;;4999745;28;20036;-88
2022/08/01 11:35:34;;;;;;;4.40;3.72;;;24.90;72.70;;;;;;4993457;28;20026;-86
2022/08/01 11:38:35;;;;;;;5.05;3.92;;;24.90;72.60;;;;;;4994629;28;20076;-89
2022/08/01 11:41:15;;;;;;;5.10;4.18;;;24.90;72.80;;;;;;4971028;28;20034;-89
2022/08/01 11:44:02;;;;;;;4.70;3.80;;;25.00;72.60;;;;;;5014018;28;20037;-88
2022/08/01 11:47:11;;;;;;;4.40;4.00;;;25.00;72.70;;;;;;4992499;28;20177;-89
2022/08/01 11:49:37;;;;;;;4.65;4.07;;;24.90;72.60;;;;;;4995719;28;20077;-88
2022/08/01 11:52:26;;;;;;;4.90;3.83;;;25.00;72.40;;;;;;4997778;28;20041;-89
2022/08/01 11:55:06;;;;;;;4.97;4.10;;;24.90;72.50;;;;;;5005787;28;20720;-92
2022/08/01 11:57:37;;;;;;;5.55;3.90;;;25.00;73.60;;;;;;5001565;28;20593;-90
2022/08/01 12:00:28;;;;;;;4.68;4.00;;;25.00;73.50;;;;;;5010627;28;20030;-93
2022/08/01 12:03:01;;;;;;;4.20;3.70;;;25.00;73.10;;;;;;5004663;28;20022;-93
2022/08/01 12:06:03;;;;;;;6.03;4.30;;;25.00;73.30;;;;;;4992043;28;20030;-94
2022/08/01 12:08:37;;;;;;;4.22;3.55;;;24.90;73.70;;;;;;5001059;28;20042;-89
2022/08/01 12:11:06;;;;;;;5.75;4.00;;;24.80;73.60;;;;;;5027981;23;20985;-55
2022/08/01 12:13:45;;;;;;;4.25;3.70;;;24.80;74.00;;;;;;4984156;28;22338;-55
2022/08/01 12:16:11;;;;;;;4.53;3.80;;;24.80;74.70;;;;;;4980381;28;20149;-56
2022/08/01 12:18:43;;;;;;;4.88;3.35;;;24.80;74.50;;;;;;4964225;28;20106;-56
2022/08/01 12:21:10;;;;;;;4.60;4.07;;;24.80;74.60;;;;;;4967383;28;20022;-56
2022/08/01 12:23:35;;;;;;;3.97;3.50;;;24.80;74.80;;;;;;4966999;28;20030;-56
2022/08/01 12:26:01;;;;;;;3.78;3.38;;;24.70;74.80;;;;;;4963836;28;20608;-54
2022/08/01 12:28:27;;;;;;;4.60;4.00;;;24.70;75.10;;;;;;4966511;28;20385;-54
2022/08/01 12:30:53;;;;;;;4.50;3.72;;;24.70;75.30;;;;;;4963226;28;20126;-54
2022/08/01 12:33:20;;;;;;;5.32;4.15;;;24.70;75.40;;;;;;4964003;28;20117;-55
2022/08/01 12:35:46;;;;;;;4.43;3.60;;;24.60;75.70;;;;;;4959896;28;20422;-54
2022/08/01 12:38:18;;;;;;;4.38;3.47;;;24.60;75.90;;;;;;4955321;28;21203;-56
2022/08/01 12:40:47;;;;;;;4.22;3.67;;;24.60;76.00;;;;;;4957376;28;20030;-56
2022/08/01 12:43:18;;;;;;;3.97;3.47;;;24.60;76.20;;;;;;4964417;28;20081;-56
2022/08/01 12:45:45;;;;;;;3.95;3.33;;;24.60;76.20;;;;;;4932724;28;20124;-55
2022/08/01 12:48:13;;;;;;;5.53;3.88;;;24.60;76.30;;;;;;4961947;28;20046;-54
2022/08/01 12:50:45;;;;;;;4.00;3.60;;;24.60;76.50;;;;;;4964153;28;20670;-56
2022/08/01 12:53:13;;;;;;;4.15;3.30;;;24.50;76.50;;;;;;4962077;28;20026;-56
2022/08/01 12:55:48;;;;;;;5.07;3.65;;;24.50;76.50;;;;;;4971730;28;20034;-56
2022/08/01 12:58:15;;;;;;;4.07;3.58;;;24.50;76.50;;;;;;4964932;28;20085;-57
2022/08/01 13:00:43;;;;;;;3.92;3.17;;;24.50;76.40;;;;;;4958496;28;20643;-57
2022/08/01 13:03:13;;;;;;;4.38;3.63;;;24.50;75.80;;;;;;4969730;28;20045;-57
2022/08/01 13:05:50;;;;;;;4.57;4.03;;;24.50;75.80;;;;;;4953773;28;20035;-55
2022/08/01 13:08:21;;;;;;;4.03;3.60;;;24.40;75.80;;;;;;4956152;28;20149;-55
2022/08/01 13:10:47;;;;;;;;;;;24.30;75.50;;;;;;4957908;28;20076;-56
2022/08/01 13:13:14;;;;;;;3.75;3.10;;;24.30;75.30;;;;;;4958423;28;20444;-55
2022/08/01 13:15:43;;;;;;;4.15;3.47;;;24.40;75.30;;;;;;4957385;28;20034;-54
2022/08/01 13:18:25;;;;;;;3.78;3.38;;;24.30;75.20;;;;;;4961126;28;20029;-54
2022/08/01 13:21:06;;;;;;;3.95;3.15;;;24.30;74.70;;;;;;4967656;28;20027;-54
2022/08/01 13:23:32;;;;;;;2.95;2.67;;;24.30;74.60;;;;;;4959146;28;20037;-57
2022/08/01 13:25:58;;;;;;;3.20;2.90;;;24.30;74.40;;;;;;4964579;28;20034;-57
2022/08/01 13:28:26;;;;;;;4.10;3.35;;;24.30;74.20;;;;;;4961222;28;20038;-53
2022/08/01 13:30:56;;;;;;;3.65;3.22;;;24.30;74.10;;;;;;4961018;28;20034;-56
2022/08/01 13:33:23;;;;;;;3.72;3.10;;;24.30;74.00;;;;;;4961699;28;20057;-55
2022/08/01 13:35:56;;;;;;;3.20;2.90;;;24.30;74.00;;;;;;4954060;28;20061;-53
2022/08/01 13:41:07;;;;;;;4.53;3.70;;;24.30;74.30;;;;;;4975683;28;20073;-56
2022/08/01 13:43:34;;;;;;;3.67;3.28;;;24.30;74.30;;;;;;4968835;28;20556;-56
2022/08/01 13:46:03;;;;;;;4.20;3.00;;;24.30;74.40;;;;;;4970036;28;20047;-56
2022/08/01 13:48:30;;;;;;;3.92;3.53;;;24.30;74.40;;;;;;4964981;28;20042;-56
2022/08/01 13:50:55;;;;;;;3.40;3.10;;;24.30;74.50;;;;;;4968452;28;20037;-57
2022/08/01 13:53:21;;;;;;;3.38;3.08;;;24.30;74.60;;;;;;4965439;28;20517;-56
2022/08/01 13:55:47;;;;;;;3.17;2.88;;;24.30;74.60;;;;;;4969189;28;20548;-56
2022/08/01 13:58:12;;;;;;;3.28;2.97;;;24.30;74.70;;;;;;4970517;28;21496;-54
2022/08/01 14:00:38;;;;;;;3.38;2.80;;;24.30;74.70;;;;;;4961336;28;20529;-55
2022/08/01 14:03:03;;;;;;;3.92;3.20;;;24.30;74.80;;;;;;4966715;28;20323;-56
2022/08/01 14:05:30;;;;;;;3.55;3.20;;;24.30;75.00;;;;;;4973938;28;20841;-56
2022/08/01 14:07:55;;;;;;;3.72;2.88;;;24.40;74.80;;;;;;4962699;28;20046;-55